Trumbauersville, Pennsylvania
Current Conditions -  °F | °C
As of 6:10 PM on Wednesday 26 Nov 2014 (Local Time) from KUKT Reporting Station
Overcast Overcast  
Wind Chill: 26°   Ceiling: 800
Heat Index: 32°   Visibility: 2.5mi
Dew Point: 32°   Wind: 7mph
Humidity: 100%   Direction: 340°NNW
Pressure: 29.89"   Gusts: NA
Location:  40.41°N, 75.38°W
Report Text: KUKT 262310Z AUTO 34006KT 2 1/2SM OVC008 00/00 A2989 RMK AO1 P0001
Loading
Personal Weather Stations






























Interactive Weather Map New forecast layout! Learn more

10-Day Weather Forecast

Advertisements
Track Severe Weather on mobile